Hlavní strana
METAR-TAF:

METAR-TAF

Letiště :

Joensuu, Finsko

zeměpisná šířka: 62-40N, zeměpisná délka: 029-38E, výška: 119 m

Aktuální stav počasí

Zpráva byla vytvořena před 17 minutami, v 20:20 UTC
Jihovýchodní vítr 9 kt
Teplota -4°C
Vlhkost vzduchu 100%
Tlak 1020 hPa
Viditelnost 10 km a více
Zataženo ve výšce 400 ft

METAR: EFJO 122020Z 13009KT 9999 OVC004 M04/M04 Q1020

Čas: 22:37 (20:37 UTC)

Předpověď počasí

Zpráva byla vytvořena před 3 hodinami a 8 minutami, v 17:29 UTC
Předpověď platná od 12 v 18 UTC do 12 v 24 UTC
Jihovýchodní vítr 7 kt
Viditelnost 10 km a více
Zataženo ve výšce 500 ft
Dočasný
od 12 v 18 UTC do 12 v 24 UTC
Zataženo ve výšce 400 ft
Pravděpodobnost 30%
od 12 v 18 UTC do 12 v 24 UTC
Viditelnost: 4000 m
slabé sněžení

TAF: EFJO 121729Z 1218/1224 14007KT 9999 OVC005 TEMPO 1218/1224 OVC004 PROB30 1218/1224 4000 -SN

Stav a předpovědi počasí z více než 4 000 letišť (zprávy METAR a TAF).

Červené a žluté tečky na mapě představují dostupné meteorologické stanice.

Když kurzor umístíte na tečku, zobrazí se název stanice.

Pak kliknutím zobrazíte stav a předpověď počasí.

Chcete-li změnit mapu, kliknutím na zelené tlačítko se znaménkem +mapu přiblížíte, kliknutím na zelené tlačítko se znaménkem – mapu oddálíte a kliknutím na zelené šipky přejdete na sousední mapy.


METAR-TAF: